Time;durP1;ratioP1;P1;durP2;ratioP2;P2;SDS_P1;SDS_P2;PMS_P1;PMS_P2;Temp;Humidity;BMP_temperature;BMP_pressure;BME280_temperature;BME280_humidity;BME280_pressure;Samples;Min_cycle;Max_cycle;Signal;HPM_P1;HPM_P2
2021/10/02 00:01:41;;;;;;;5.88;1.40;;;;;;;;;;5065625;28;20133;-61
2021/10/02 00:44:50;;;;;;;8.57;1.20;;;;;;;;;;5075002;28;20113;-63
2021/10/02 00:47:18;;;;;;;3.78;0.90;;;;;;;;;;5074798;28;20051;-63
2021/10/02 00:49:45;;;;;;;4.95;0.80;;;;;;;;;;5075368;28;20083;-62
2021/10/02 00:52:12;;;;;;;4.90;0.80;;;;;;;;;;5075368;28;20041;-62
2021/10/02 00:54:38;;;;;;;18.00;1.70;;;;;;;;;;5072566;28;20052;-60
2021/10/02 00:57:04;;;;;;;13.32;1.50;;;;;;;;;;5064663;28;20036;-62
2021/10/02 00:59:31;;;;;;;10.93;1.20;;;;;;;;;;5069647;28;20059;-62
2021/10/02 01:02:04;;;;;;;10.43;1.70;;;;;;;;;;5073948;28;20133;-62
2021/10/02 01:04:48;;;;;;;11.70;1.00;;;;;;;;;;5059974;28;20094;-61
2021/10/02 01:07:22;;;;;;;8.60;2.33;;;;;;;;;;5071708;28;20064;-61
2021/10/02 01:10:07;;;;;;;6.15;1.55;;;;;;;;;;5066978;28;20041;-61
2021/10/02 01:12:41;;;;;;;11.05;1.50;;;;;;;;;;5053763;28;20063;-61
2021/10/02 01:15:13;;;;;;;13.15;1.00;;;;;;;;;;5072091;28;20468;-59
2021/10/02 01:17:48;;;;;;;5.30;0.88;;;;;;;;;;5071759;28;20049;-60
2021/10/02 01:20:20;;;;;;;5.25;0.98;;;;;;;;;;5072411;28;20604;-61
2021/10/02 01:22:46;;;;;;;15.40;1.42;;;;;;;;;;5073568;28;20093;-59
2021/10/02 01:25:24;;;;;;;6.88;1.40;;;;;;;;;;5056845;28;20044;-61
2021/10/02 01:28:04;;;;;;;5.50;1.52;;;;;;;;;;5049432;28;20040;-62
2021/10/02 01:33:12;;;;;;;15.57;1.23;;;;;;;;;;5058959;28;20041;-61
2021/10/02 01:35:58;;;;;;;17.10;1.63;;;;;;;;;;5048686;28;20065;-59
2021/10/02 01:49:25;;;;;;;7.82;1.38;;;;;;;;;;5070139;28;20109;-62
2021/10/02 01:51:52;;;;;;;7.30;1.23;;;;;;;;;;5071697;28;20063;-60
2021/10/02 01:54:19;;;;;;;12.70;1.30;;;;;;;;;;5052509;28;20490;-61
2021/10/02 01:56:46;;;;;;;11.90;1.25;;;;;;;;;;5075345;28;20093;-61
2021/10/02 01:59:13;;;;;;;5.88;1.15;;;;;;;;;;5073581;28;20036;-63
2021/10/02 02:01:44;;;;;;;5.10;1.30;;;;;;;;;;5070001;28;20069;-64
2021/10/02 02:04:10;;;;;;;7.93;1.75;;;;;;;;;;5070662;28;20039;-61
2021/10/02 02:06:37;;;;;;;11.43;2.55;;;;;;;;;;5072285;28;20036;-59
2021/10/02 02:09:03;;;;;;;11.35;2.50;;;;;;;;;;5071581;28;20043;-60
2021/10/02 02:11:29;;;;;;;19.60;2.88;;;;;;;;;;5070311;28;20783;-60
2021/10/02 02:13:57;;;;;;;7.55;2.03;;;;;;;;;;5073980;28;20036;-61
2021/10/02 02:16:23;;;;;;;5.88;1.67;;;;;;;;;;5071688;28;20619;-60
2021/10/02 02:18:49;;;;;;;8.10;1.40;;;;;;;;;;5070283;28;20050;-60
2021/10/02 02:21:15;;;;;;;10.00;1.50;;;;;;;;;;5055681;28;20046;-58
2021/10/02 02:23:41;;;;;;;6.85;1.40;;;;;;;;;;5069203;28;20067;-61
2021/10/02 02:26:09;;;;;;;6.90;1.50;;;;;;;;;;5069563;28;20445;-60
2021/10/02 02:28:35;;;;;;;6.90;1.20;;;;;;;;;;5070519;28;20042;-61
2021/10/02 02:31:02;;;;;;;4.82;1.20;;;;;;;;;;5068790;28;20163;-60
2021/10/02 02:33:28;;;;;;;9.00;1.65;;;;;;;;;;5071197;28;20047;-61
2021/10/02 02:35:54;;;;;;;8.27;1.40;;;;;;;;;;5059692;28;20535;-61
2021/10/02 02:38:20;;;;;;;5.22;1.42;;;;;;;;;;5069781;28;20131;-61
2021/10/02 02:40:47;;;;;;;10.18;1.52;;;;;;;;;;5060343;28;20479;-61
2021/10/02 02:43:13;;;;;;;10.07;1.42;;;;;;;;;;5062937;28;20143;-61
2021/10/02 02:45:41;;;;;;;7.63;1.42;;;;;;;;;;5071684;28;20124;-60
2021/10/02 02:48:11;;;;;;;10.38;1.58;;;;;;;;;;5065735;28;20060;-57
2021/10/02 02:50:37;;;;;;;6.72;1.42;;;;;;;;;;5052788;28;22320;-58
2021/10/02 02:53:05;;;;;;;7.60;1.80;;;;;;;;;;5051767;28;20040;-58
2021/10/02 02:55:38;;;;;;;11.00;3.40;;;;;;;;;;5058733;28;20046;-59
2021/10/02 02:58:05;;;;;;;31.77;12.17;;;;;;;;;;5068359;28;20536;-59
2021/10/02 03:00:31;;;;;;;18.70;8.90;;;;;;;;;;5068057;28;20066;-60
2021/10/02 03:03:00;;;;;;;35.55;18.58;;;;;;;;;;5069671;28;20063;-58
2021/10/02 03:05:27;;;;;;;20.33;9.38;;;;;;;;;;5072833;28;20381;-58
2021/10/02 03:07:54;;;;;;;14.38;5.57;;;;;;;;;;5073163;28;20071;-59
2021/10/02 03:10:20;;;;;;;21.35;2.70;;;;;;;;;;5072912;28;20060;-57
2021/10/02 03:12:46;;;;;;;15.40;3.55;;;;;;;;;;5072549;28;20080;-60
2021/10/02 03:15:14;;;;;;;13.75;5.03;;;;;;;;;;5059112;28;20049;-59
2021/10/02 03:17:42;;;;;;;8.80;3.05;;;;;;;;;;5051805;28;20136;-59
2021/10/02 03:20:08;;;;;;;26.35;11.18;;;;;;;;;;5069043;28;20039;-57
2021/10/02 03:22:34;;;;;;;13.40;4.35;;;;;;;;;;5072765;28;20087;-59
2021/10/02 03:25:01;;;;;;;7.97;3.05;;;;;;;;;;5074742;28;20036;-59
2021/10/02 03:27:28;;;;;;;9.05;2.40;;;;;;;;;;5068105;28;20054;-58
2021/10/02 03:29:54;;;;;;;8.88;2.38;;;;;;;;;;5071282;28;20505;-60
2021/10/02 03:32:20;;;;;;;15.98;2.38;;;;;;;;;;5069297;28;20132;-57
2021/10/02 03:34:46;;;;;;;5.45;1.88;;;;;;;;;;5070030;28;20764;-60
2021/10/02 03:37:12;;;;;;;13.68;2.47;;;;;;;;;;5067394;28;20040;-60
2021/10/02 03:39:38;;;;;;;6.22;1.90;;;;;;;;;;5068444;28;20055;-60
2021/10/02 03:42:05;;;;;;;10.23;2.40;;;;;;;;;;5049914;28;20048;-60
2021/10/02 03:44:31;;;;;;;9.07;2.30;;;;;;;;;;5071181;28;20028;-60
2021/10/02 03:46:57;;;;;;;14.25;2.42;;;;;;;;;;5072251;28;20040;-60
2021/10/02 03:49:23;;;;;;;9.07;4.00;;;;;;;;;;5071656;28;20666;-59
2021/10/02 03:51:48;;;;;;;8.13;2.38;;;;;;;;;;5075327;28;20047;-59
2021/10/02 03:54:14;;;;;;;8.90;2.10;;;;;;;;;;5075042;28;20552;-60
2021/10/02 03:56:40;;;;;;;7.32;1.73;;;;;;;;;;5060727;28;20036;-59
2021/10/02 03:59:06;;;;;;;7.43;1.98;;;;;;;;;;5072069;28;20036;-60
2021/10/02 04:01:32;;;;;;;6.55;1.83;;;;;;;;;;5075502;28;20057;-60
2021/10/02 04:04:00;;;;;;;5.75;1.60;;;;;;;;;;5074386;28;20044;-57
2021/10/02 04:06:26;;;;;;;5.07;1.73;;;;;;;;;;5054813;28;20040;-60
2021/10/02 04:08:52;;;;;;;7.65;1.92;;;;;;;;;;5070927;28;20044;-60
2021/10/02 04:11:18;;;;;;;4.43;1.55;;;;;;;;;;5072160;28;20162;-60
2021/10/02 04:13:44;;;;;;;9.30;1.83;;;;;;;;;;5058361;28;20056;-61
2021/10/02 04:16:10;;;;;;;8.73;2.35;;;;;;;;;;5070989;28;20089;-60
2021/10/02 04:18:55;;;;;;;8.48;2.20;;;;;;;;;;5070594;28;20033;-60
2021/10/02 04:21:21;;;;;;;4.63;2.17;;;;;;;;;;5013408;28;20044;-61
2021/10/02 04:23:47;;;;;;;6.78;2.33;;;;;;;;;;5020464;28;20468;-58
2021/10/02 04:26:13;;;;;;;10.30;2.55;;;;;;;;;;5036990;28;20045;-59
2021/10/02 04:28:39;;;;;;;6.43;2.65;;;;;;;;;;5032487;28;20060;-59
2021/10/02 04:31:08;;;;;;;11.77;2.30;;;;;;;;;;5035224;28;20521;-60
2021/10/02 04:33:33;;;;;;;7.95;2.15;;;;;;;;;;5033704;28;20800;-59
2021/10/02 04:35:59;;;;;;;4.40;1.80;;;;;;;;;;5035397;28;20099;-59
2021/10/02 04:38:25;;;;;;;7.90;2.17;;;;;;;;;;5034603;28;20053;-59
2021/10/02 04:40:54;;;;;;;7.95;2.05;;;;;;;;;;5035790;28;20156;-59
2021/10/02 04:43:20;;;;;;;7.45;1.85;;;;;;;;;;5035209;28;20536;-59
2021/10/02 04:45:46;;;;;;;13.45;2.55;;;;;;;;;;5034093;28;20033;-59
2021/10/02 04:48:12;;;;;;;8.00;2.08;;;;;;;;;;5035797;28;20037;-58
2021/10/02 04:50:38;;;;;;;5.40;2.20;;;;;;;;;;5020156;28;20138;-60
2021/10/02 04:53:04;;;;;;;8.27;2.30;;;;;;;;;;5015154;28;20033;-60
2021/10/02 04:55:30;;;;;;;6.32;2.17;;;;;;;;;;5016676;28;20157;-59
2021/10/02 04:57:56;;;;;;;6.55;2.25;;;;;;;;;;5031983;28;20249;-61
2021/10/02 05:00:22;;;;;;;10.20;2.20;;;;;;;;;;5070240;28;20047;-59
2021/10/02 05:02:48;;;;;;;5.85;1.65;;;;;;;;;;5055420;28;20079;-59
2021/10/02 05:05:14;;;;;;;5.13;1.88;;;;;;;;;;5070245;28;20040;-59
2021/10/02 05:07:40;;;;;;;4.93;1.73;;;;;;;;;;5070247;28;20036;-60
2021/10/02 05:10:06;;;;;;;4.75;1.90;;;;;;;;;;5065008;28;20032;-60
2021/10/02 05:12:32;;;;;;;6.63;1.90;;;;;;;;;;5071957;28;20071;-59
2021/10/02 05:14:58;;;;;;;3.80;1.33;;;;;;;;;;5072591;28;20044;-60
2021/10/02 05:17:24;;;;;;;4.35;1.60;;;;;;;;;;5073133;28;20044;-60
2021/10/02 05:19:51;;;;;;;11.55;1.92;;;;;;;;;;5074136;28;20044;-60
2021/10/02 05:22:17;;;;;;;11.25;2.10;;;;;;;;;;5074380;28;20048;-59
2021/10/02 05:24:43;;;;;;;6.85;1.77;;;;;;;;;;5072242;28;20032;-60
2021/10/02 05:27:10;;;;;;;5.35;1.60;;;;;;;;;;5072836;28;20646;-60
2021/10/02 05:29:36;;;;;;;9.00;1.63;;;;;;;;;;5073559;28;20028;-60
2021/10/02 05:32:03;;;;;;;5.50;1.45;;;;;;;;;;5072884;28;20040;-59
2021/10/02 05:34:29;;;;;;;5.43;1.60;;;;;;;;;;5072681;28;20059;-59
2021/10/02 05:36:55;;;;;;;5.07;1.83;;;;;;;;;;5072001;28;20062;-60
2021/10/02 05:39:21;;;;;;;6.03;1.80;;;;;;;;;;5071737;28;20086;-59
2021/10/02 05:41:46;;;;;;;5.68;1.35;;;;;;;;;;5073773;28;20073;-58
2021/10/02 05:44:12;;;;;;;6.90;1.60;;;;;;;;;;5070881;28;20825;-59
2021/10/02 05:46:38;;;;;;;9.07;1.60;;;;;;;;;;5071092;28;20040;-58
2021/10/02 05:49:04;;;;;;;6.97;1.88;;;;;;;;;;5070471;28;20036;-58
2021/10/02 05:51:30;;;;;;;4.35;1.50;;;;;;;;;;5051185;28;20044;-59
2021/10/02 05:53:56;;;;;;;5.65;1.48;;;;;;;;;;5072901;28;20040;-58
2021/10/02 05:56:24;;;;;;;6.60;1.58;;;;;;;;;;5051718;28;20045;-60
2021/10/02 05:58:51;;;;;;;7.90;1.77;;;;;;;;;;5051868;28;20040;-62
2021/10/02 06:01:17;;;;;;;8.75;1.75;;;;;;;;;;5048794;28;20032;-60
2021/10/02 06:03:43;;;;;;;6.30;2.13;;;;;;;;;;5069637;28;20059;-59
2021/10/02 06:06:09;;;;;;;6.45;2.65;;;;;;;;;;5052710;28;20071;-60
2021/10/02 06:08:35;;;;;;;6.80;1.80;;;;;;;;;;5049914;28;20119;-59
2021/10/02 06:11:01;;;;;;;7.07;2.20;;;;;;;;;;5064862;28;20046;-61
2021/10/02 06:13:27;;;;;;;7.35;2.45;;;;;;;;;;5036805;28;20060;-60
2021/10/02 06:15:53;;;;;;;8.13;1.90;;;;;;;;;;5050866;28;20025;-60
2021/10/02 06:18:19;;;;;;;7.15;1.83;;;;;;;;;;5055061;28;20656;-60
2021/10/02 06:20:45;;;;;;;10.65;2.08;;;;;;;;;;5052604;28;20040;-57
2021/10/02 06:23:11;;;;;;;5.07;1.55;;;;;;;;;;5037360;28;20049;-59
2021/10/02 06:25:36;;;;;;;6.28;1.75;;;;;;;;;;5053854;28;20051;-59
2021/10/02 06:28:02;;;;;;;6.55;1.77;;;;;;;;;;5056023;28;21041;-60
2021/10/02 06:30:28;;;;;;;6.13;1.80;;;;;;;;;;5056169;28;20044;-59
2021/10/02 06:32:54;;;;;;;9.32;2.00;;;;;;;;;;5058740;28;20138;-59
2021/10/02 06:35:20;;;;;;;8.75;1.80;;;;;;;;;;5057675;28;20136;-60
2021/10/02 06:37:46;;;;;;;5.28;1.98;;;;;;;;;;5053772;28;20067;-60
2021/10/02 06:40:13;;;;;;;6.72;1.92;;;;;;;;;;5037756;28;20052;-61
2021/10/02 06:42:39;;;;;;;5.43;1.63;;;;;;;;;;5059343;28;20044;-60
2021/10/02 06:45:06;;;;;;;9.88;2.20;;;;;;;;;;5057765;28;20052;-60
2021/10/02 06:47:32;;;;;;;8.10;2.30;;;;;;;;;;5059924;28;20388;-59
2021/10/02 06:49:58;;;;;;;10.70;2.30;;;;;;;;;;5056796;28;20036;-58
2021/10/02 06:52:25;;;;;;;7.90;2.20;;;;;;;;;;5063820;28;20050;-58
2021/10/02 06:54:51;;;;;;;10.85;2.55;;;;;;;;;;5066877;28;21572;-60
2021/10/02 06:57:17;;;;;;;7.53;2.30;;;;;;;;;;5059877;28;20033;-60
2021/10/02 06:59:43;;;;;;;10.35;2.25;;;;;;;;;;5038854;28;20064;-60
2021/10/02 07:02:08;;;;;;;7.15;2.28;;;;;;;;;;5038571;28;20041;-60
2021/10/02 07:04:34;;;;;;;9.98;2.50;;;;;;;;;;5035385;28;20590;-60
2021/10/02 07:07:00;;;;;;;8.45;1.98;;;;;;;;;;5056390;28;20032;-58
2021/10/02 07:09:26;;;;;;;6.18;2.10;;;;;;;;;;5058430;28;20737;-60
2021/10/02 07:11:52;;;;;;;11.00;2.08;;;;;;;;;;5069392;28;20140;-61
2021/10/02 07:14:18;;;;;;;11.45;1.70;;;;;;;;;;5075057;28;20047;-59
2021/10/02 07:16:44;;;;;;;5.25;1.85;;;;;;;;;;5072854;28;20052;-60
2021/10/02 07:19:10;;;;;;;9.15;2.40;;;;;;;;;;5073127;28;20285;-60
2021/10/02 07:21:37;;;;;;;7.80;1.98;;;;;;;;;;5058330;28;20544;-59
2021/10/02 07:24:03;;;;;;;5.75;1.80;;;;;;;;;;5074960;28;20135;-60
2021/10/02 07:26:29;;;;;;;7.53;1.60;;;;;;;;;;5073380;28;20046;-58
2021/10/02 07:28:55;;;;;;;9.55;1.80;;;;;;;;;;5073801;28;20492;-60
2021/10/02 07:31:21;;;;;;;7.28;2.03;;;;;;;;;;5056315;28;20071;-59
2021/10/02 07:33:48;;;;;;;6.85;2.25;;;;;;;;;;5074999;28;20039;-60
2021/10/02 07:36:15;;;;;;;9.30;1.98;;;;;;;;;;5058356;28;20052;-60
2021/10/02 07:38:41;;;;;;;6.18;2.00;;;;;;;;;;5072664;28;20032;-59
2021/10/02 07:41:07;;;;;;;10.15;2.10;;;;;;;;;;5077841;28;20894;-55
2021/10/02 07:43:34;;;;;;;5.43;1.52;;;;;;;;;;5073321;28;20071;-58
2021/10/02 07:46:00;;;;;;;12.27;2.25;;;;;;;;;;5074215;28;20534;-60
2021/10/02 07:48:27;;;;;;;4.95;2.10;;;;;;;;;;5070570;28;20043;-59
2021/10/02 07:50:54;;;;;;;6.82;1.95;;;;;;;;;;5075265;28;20128;-60
2021/10/02 07:53:20;;;;;;;11.70;2.28;;;;;;;;;;5074373;28;20058;-59
2021/10/02 07:55:48;;;;;;;7.88;2.15;;;;;;;;;;5074999;28;20071;-58
2021/10/02 07:58:15;;;;;;;12.45;1.65;;;;;;;;;;5072379;28;20043;-59
2021/10/02 08:00:40;;;;;;;8.68;2.20;;;;;;;;;;5073711;28;20037;-58
2021/10/02 08:03:06;;;;;;;12.95;2.60;;;;;;;;;;5075004;28;20070;-59
2021/10/02 08:05:32;;;;;;;6.55;2.10;;;;;;;;;;5075167;28;20043;-57
2021/10/02 08:08:01;;;;;;;10.02;2.25;;;;;;;;;;5056214;28;20124;-59
2021/10/02 08:10:28;;;;;;;13.13;2.40;;;;;;;;;;5075996;28;20162;-58
2021/10/02 08:12:55;;;;;;;10.27;2.05;;;;;;;;;;5075525;28;20051;-57
2021/10/02 08:15:22;;;;;;;9.43;2.30;;;;;;;;;;5071948;28;20429;-55
2021/10/02 08:17:48;;;;;;;12.57;2.40;;;;;;;;;;5074746;28;20471;-58
2021/10/02 08:20:15;;;;;;;7.28;2.00;;;;;;;;;;5072085;28;20094;-58
2021/10/02 08:22:43;;;;;;;11.60;2.58;;;;;;;;;;5069696;28;20048;-57
2021/10/02 08:25:09;;;;;;;11.40;2.47;;;;;;;;;;5072733;28;20070;-57
2021/10/02 08:27:35;;;;;;;6.07;2.17;;;;;;;;;;5075386;28;20074;-60
2021/10/02 08:30:03;;;;;;;6.47;2.38;;;;;;;;;;5074781;28;20033;-57
2021/10/02 08:32:29;;;;;;;13.55;3.10;;;;;;;;;;5055193;28;20051;-58
2021/10/02 08:34:55;;;;;;;5.22;1.90;;;;;;;;;;5072575;28;20087;-57
2021/10/02 08:37:20;;;;;;;13.25;2.65;;;;;;;;;;5072389;28;20044;-59
2021/10/02 08:39:46;;;;;;;8.30;2.13;;;;;;;;;;5077612;28;20081;-57
2021/10/02 08:42:12;;;;;;;10.52;1.95;;;;;;;;;;5074701;28;20040;-59
2021/10/02 08:44:38;;;;;;;6.43;1.88;;;;;;;;;;5072710;28;20048;-59
2021/10/02 08:47:05;;;;;;;8.10;1.85;;;;;;;;;;5071634;28;20040;-58
2021/10/02 08:49:31;;;;;;;5.32;2.03;;;;;;;;;;5073414;28;20061;-59
2021/10/02 08:51:57;;;;;;;5.38;1.63;;;;;;;;;;5053973;28;20082;-59
2021/10/02 08:54:23;;;;;;;7.63;1.90;;;;;;;;;;5071575;28;20064;-58
2021/10/02 08:56:51;;;;;;;5.97;2.13;;;;;;;;;;5072025;28;20556;-58
2021/10/02 08:59:17;;;;;;;7.60;2.15;;;;;;;;;;5057438;28;20036;-60
2021/10/02 09:01:42;;;;;;;7.65;2.30;;;;;;;;;;5073111;28;20042;-58
2021/10/02 09:04:08;;;;;;;5.35;1.80;;;;;;;;;;5069994;28;20104;-57
2021/10/02 09:06:34;;;;;;;11.35;2.08;;;;;;;;;;5073769;28;20041;-60
2021/10/02 09:09:00;;;;;;;6.30;2.03;;;;;;;;;;5075160;28;20180;-59
2021/10/02 09:11:27;;;;;;;5.63;2.00;;;;;;;;;;5052384;28;20552;-58
2021/10/02 09:13:53;;;;;;;5.00;1.65;;;;;;;;;;5069873;28;20079;-60
2021/10/02 09:16:19;;;;;;;4.53;1.60;;;;;;;;;;5070329;28;20034;-58
2021/10/02 09:18:46;;;;;;;4.15;1.65;;;;;;;;;;5070279;28;20032;-59
2021/10/02 09:21:12;;;;;;;5.78;1.73;;;;;;;;;;5070432;28;20043;-58
2021/10/02 09:23:47;;;;;;;4.47;1.67;;;;;;;;;;5071430;28;22253;-58
2021/10/02 09:26:12;;;;;;;4.90;1.75;;;;;;;;;;5074176;28;20070;-59
2021/10/02 09:28:43;;;;;;;9.27;1.98;;;;;;;;;;5072198;28;20063;-59
2021/10/02 09:31:09;;;;;;;6.50;1.75;;;;;;;;;;5072186;28;20504;-59
2021/10/02 09:33:35;;;;;;;5.50;1.77;;;;;;;;;;5067865;28;20043;-57
2021/10/02 09:36:01;;;;;;;5.40;1.60;;;;;;;;;;5053578;28;20036;-58
2021/10/02 09:38:31;;;;;;;3.92;1.60;;;;;;;;;;5047462;28;20148;-59
2021/10/02 09:40:58;;;;;;;6.05;1.73;;;;;;;;;;5062714;28;20036;-59
2021/10/02 09:43:24;;;;;;;3.08;1.17;;;;;;;;;;5044921;28;20049;-59
2021/10/02 09:45:51;;;;;;;7.30;1.33;;;;;;;;;;5051556;28;20508;-56
2021/10/02 09:48:18;;;;;;;4.50;1.45;;;;;;;;;;5048353;28;20037;-59
2021/10/02 09:50:45;;;;;;;5.25;1.67;;;;;;;;;;5076865;28;20029;-59
2021/10/02 09:53:12;;;;;;;5.65;1.77;;;;;;;;;;5051401;28;20037;-59
2021/10/02 09:55:40;;;;;;;5.18;1.92;;;;;;;;;;5052178;28;20043;-58
2021/10/02 09:58:07;;;;;;;5.00;1.70;;;;;;;;;;5075417;27;20036;-59
2021/10/02 10:00:38;;;;;;;4.50;1.55;;;;;;;;;;5073937;28;20040;-57
2021/10/02 10:03:06;;;;;;;6.85;2.03;;;;;;;;;;5074517;28;20040;-59
2021/10/02 10:05:33;;;;;;;11.18;1.75;;;;;;;;;;5063642;28;20035;-59
2021/10/02 10:08:00;;;;;;;10.30;1.95;;;;;;;;;;5074994;28;20071;-59
2021/10/02 10:10:29;;;;;;;7.47;1.88;;;;;;;;;;5072458;28;20039;-58
2021/10/02 10:12:56;;;;;;;8.18;1.67;;;;;;;;;;5071307;28;20553;-58
2021/10/02 10:15:26;;;;;;;5.22;1.70;;;;;;;;;;5054565;28;20612;-59
2021/10/02 10:17:53;;;;;;;4.70;1.77;;;;;;;;;;5053816;28;20066;-58
2021/10/02 10:20:18;;;;;;;3.83;1.67;;;;;;;;;;5075474;28;20091;-56
2021/10/02 10:22:46;;;;;;;5.00;1.75;;;;;;;;;;5077561;28;20480;-58
2021/10/02 10:25:12;;;;;;;9.20;2.15;;;;;;;;;;5076710;28;20050;-60
2021/10/02 10:27:40;;;;;;;6.57;1.98;;;;;;;;;;5077580;28;20044;-59
2021/10/02 10:30:17;;;;;;;6.72;1.70;;;;;;;;;;5080356;28;20745;-59
2021/10/02 10:33:01;;;;;;;4.50;1.70;;;;;;;;;;5081360;28;20065;-59
2021/10/02 10:35:28;;;;;;;4.82;1.55;;;;;;;;;;5074795;28;20127;-60
2021/10/02 10:37:54;;;;;;;3.72;1.40;;;;;;;;;;5078269;28;20131;-60
2021/10/02 10:40:20;;;;;;;4.20;1.45;;;;;;;;;;5074205;28;20032;-57
2021/10/02 10:42:46;;;;;;;5.60;1.55;;;;;;;;;;5057782;28;20493;-60
2021/10/02 10:45:13;;;;;;;4.03;1.50;;;;;;;;;;5071128;28;20039;-59
2021/10/02 10:47:39;;;;;;;5.32;1.40;;;;;;;;;;5069074;28;20024;-59
2021/10/02 10:50:05;;;;;;;5.00;1.50;;;;;;;;;;5073403;28;20044;-57
2021/10/02 10:52:35;;;;;;;4.22;1.50;;;;;;;;;;5070871;28;20130;-59
2021/10/02 10:55:01;;;;;;;6.53;1.30;;;;;;;;;;5071340;28;20044;-56
2021/10/02 10:57:35;;;;;;;4.50;1.20;;;;;;;;;;5069064;28;20081;-58
2021/10/02 11:00:02;;;;;;;4.68;1.20;;;;;;;;;;5070533;28;20550;-60
2021/10/02 11:02:41;;;;;;;2.97;1.05;;;;;;;;;;5071685;28;20044;-57
2021/10/02 11:05:26;;;;;;;4.22;1.20;;;;;;;;;;5072551;28;20085;-60
2021/10/02 11:07:52;;;;;;;3.42;1.00;;;;;;;;;;5070954;28;20040;-61
2021/10/02 11:10:37;;;;;;;4.15;1.20;;;;;;;;;;5071034;28;20052;-59
2021/10/02 11:13:03;;;;;;;7.15;1.30;;;;;;;;;;5072463;28;20068;-60
2021/10/02 11:15:28;;;;;;;6.65;1.27;;;;;;;;;;5072213;28;20531;-60
2021/10/02 11:17:54;;;;;;;6.28;1.27;;;;;;;;;;5071829;28;20481;-58
2021/10/02 11:20:26;;;;;;;2.92;1.08;;;;;;;;;;5071888;28;20044;-59
2021/10/02 11:23:13;;;;;;;3.47;1.52;;;;;;;;;;5070628;28;20051;-59
2021/10/02 11:25:40;;;;;;;3.63;1.20;;;;;;;;;;5067998;28;20048;-57
2021/10/02 11:28:21;;;;;;;3.83;1.27;;;;;;;;;;5070340;28;20040;-57
2021/10/02 11:30:48;;;;;;;3.83;1.10;;;;;;;;;;5070860;28;20040;-60
2021/10/02 11:33:33;;;;;;;8.50;1.30;;;;;;;;;;5070872;28;20039;-60
2021/10/02 11:35:59;;;;;;;4.35;1.20;;;;;;;;;;5068497;28;20059;-58
2021/10/02 11:38:35;;;;;;;3.97;1.30;;;;;;;;;;5067946;28;20044;-57
2021/10/02 11:41:01;;;;;;;5.68;0.98;;;;;;;;;;5070073;28;20032;-57
2021/10/02 11:43:28;;;;;;;4.07;1.30;;;;;;;;;;5069788;28;20957;-58
2021/10/02 11:45:55;;;;;;;4.30;1.30;;;;;;;;;;5070343;28;20040;-57
2021/10/02 11:48:30;;;;;;;4.95;1.65;;;;;;;;;;5057489;28;20051;-57
2021/10/02 11:51:15;;;;;;;4.30;1.63;;;;;;;;;;5070823;28;20475;-59
2021/10/02 11:53:44;;;;;;;3.15;1.35;;;;;;;;;;5067665;28;20047;-58
2021/10/02 11:56:18;;;;;;;5.40;1.80;;;;;;;;;;5072109;28;20040;-56
2021/10/02 11:58:44;;;;;;;3.53;1.50;;;;;;;;;;5069845;28;20495;-59
2021/10/02 12:01:19;;;;;;;6.82;1.77;;;;;;;;;;5070015;28;20048;-60
2021/10/02 12:03:46;;;;;;;8.90;1.55;;;;;;;;;;5072619;28;20143;-62
2021/10/02 12:06:12;;;;;;;7.80;1.92;;;;;;;;;;5072344;28;20275;-59
2021/10/02 12:08:39;;;;;;;6.82;1.40;;;;;;;;;;5074787;28;20161;-60
2021/10/02 12:11:12;;;;;;;4.60;1.58;;;;;;;;;;5074706;28;20059;-60
2021/10/02 12:13:45;;;;;;;5.65;1.27;;;;;;;;;;5068898;28;20055;-60
2021/10/02 12:16:18;;;;;;;3.97;1.30;;;;;;;;;;5072155;28;20131;-58
2021/10/02 12:18:44;;;;;;;2.88;0.90;;;;;;;;;;5069706;28;20107;-59
2021/10/02 12:21:22;;;;;;;3.47;1.20;;;;;;;;;;5072492;28;20032;-57
2021/10/02 12:23:54;;;;;;;3.97;1.20;;;;;;;;;;5070412;28;20051;-58
2021/10/02 12:26:20;;;;;;;2.75;1.10;;;;;;;;;;5071549;28;20062;-57
2021/10/02 12:28:46;;;;;;;5.90;1.00;;;;;;;;;;5074250;28;20043;-58
2021/10/02 12:31:12;;;;;;;3.00;1.10;;;;;;;;;;5053964;28;20040;-60
2021/10/02 12:33:38;;;;;;;3.05;1.15;;;;;;;;;;5075071;28;20066;-60
2021/10/02 12:36:04;;;;;;;5.97;1.20;;;;;;;;;;5070524;28;20051;-60
2021/10/02 12:38:42;;;;;;;4.03;1.35;;;;;;;;;;5072306;28;20041;-60
2021/10/02 12:41:08;;;;;;;3.83;1.55;;;;;;;;;;5072458;28;20036;-58
2021/10/02 12:43:37;;;;;;;4.78;1.55;;;;;;;;;;5071211;28;20059;-59
2021/10/02 12:46:23;;;;;;;9.27;1.60;;;;;;;;;;5069921;28;20032;-58
2021/10/02 12:48:49;;;;;;;3.83;1.58;;;;;;;;;;5071838;28;20036;-61
2021/10/02 12:51:16;;;;;;;3.70;1.55;;;;;;;;;;5074838;28;20473;-60
2021/10/02 12:53:43;;;;;;;6.80;1.52;;;;;;;;;;5076463;28;20039;-59
2021/10/02 12:56:16;;;;;;;5.13;2.10;;;;;;;;;;5074691;28;20054;-58
2021/10/02 12:58:46;;;;;;;10.13;2.13;;;;;;;;;;5061557;28;20639;-59
2021/10/02 13:01:15;;;;;;;5.95;2.13;;;;;;;;;;5056125;28;20036;-56
2021/10/02 13:03:44;;;;;;;4.90;1.88;;;;;;;;;;5072923;28;20055;-60
2021/10/02 13:06:12;;;;;;;6.55;2.10;;;;;;;;;;5037119;28;20484;-58
2021/10/02 13:08:37;;;;;;;4.97;1.63;;;;;;;;;;5017951;28;20045;-59
2021/10/02 13:11:29;;;;;;;5.90;2.00;;;;;;;;;;5024155;28;20068;-60
2021/10/02 13:13:56;;;;;;;5.75;2.03;;;;;;;;;;5027466;28;20038;-57
2021/10/02 13:16:22;;;;;;;6.95;2.15;;;;;;;;;;5026727;28;20036;-58
2021/10/02 13:18:48;;;;;;;8.05;1.80;;;;;;;;;;5005819;28;20227;-57
2021/10/02 13:21:20;;;;;;;6.43;1.92;;;;;;;;;;4985430;28;20033;-59
2021/10/02 13:23:46;;;;;;;4.90;1.58;;;;;;;;;;5010449;28;20176;-60
2021/10/02 13:26:23;;;;;;;4.85;1.60;;;;;;;;;;4986061;28;20261;-59
2021/10/02 13:28:54;;;;;;;6.20;1.83;;;;;;;;;;5010514;28;20510;-54
2021/10/02 13:31:21;;;;;;;5.25;1.52;;;;;;;;;;5016249;28;20052;-59
2021/10/02 13:33:51;;;;;;;5.05;1.55;;;;;;;;;;5014524;28;20053;-58
2021/10/02 13:36:29;;;;;;;5.97;1.40;;;;;;;;;;5005217;28;20073;-56
2021/10/02 13:39:06;;;;;;;8.45;1.80;;;;;;;;;;5004459;28;20095;-59
2021/10/02 13:41:32;;;;;;;8.00;2.10;;;;;;;;;;5006518;28;20071;-57
2021/10/02 13:44:01;;;;;;;14.93;2.03;;;;;;;;;;4989588;28;20136;-58
2021/10/02 13:46:29;;;;;;;6.43;1.95;;;;;;;;;;4991553;28;20069;-56
2021/10/02 13:48:55;;;;;;;5.57;1.98;;;;;;;;;;5009764;28;20033;-58
2021/10/02 13:51:21;;;;;;;3.92;1.40;;;;;;;;;;5070219;28;20037;-57
2021/10/02 13:53:48;;;;;;;5.85;1.50;;;;;;;;;;5071918;28;20040;-60
2021/10/02 13:56:13;;;;;;;3.80;1.38;;;;;;;;;;5069325;28;20399;-58
2021/10/02 13:58:39;;;;;;;7.38;1.70;;;;;;;;;;5069669;28;20036;-57
2021/10/02 14:01:05;;;;;;;7.40;1.50;;;;;;;;;;5070979;28;20148;-59
2021/10/02 14:03:31;;;;;;;3.60;1.15;;;;;;;;;;5069523;28;20072;-60
2021/10/02 14:05:57;;;;;;;3.00;1.13;;;;;;;;;;5069774;28;20144;-59
2021/10/02 14:08:23;;;;;;;8.32;1.33;;;;;;;;;;5066566;28;20128;-59
2021/10/02 14:10:49;;;;;;;5.70;1.77;;;;;;;;;;5069732;28;20037;-58
2021/10/02 14:13:15;;;;;;;3.22;1.45;;;;;;;;;;5069827;28;20118;-60
2021/10/02 14:15:41;;;;;;;4.80;1.73;;;;;;;;;;5069064;28;20047;-59
2021/10/02 14:18:07;;;;;;;3.92;1.35;;;;;;;;;;5070299;28;20643;-59
2021/10/02 14:20:33;;;;;;;3.90;1.58;;;;;;;;;;5071167;28;20036;-59
2021/10/02 14:22:59;;;;;;;4.22;1.65;;;;;;;;;;5071999;28;20044;-59
2021/10/02 14:25:25;;;;;;;4.78;1.80;;;;;;;;;;5044495;28;20060;-59
2021/10/02 14:27:51;;;;;;;11.65;2.00;;;;;;;;;;5077119;28;20048;-59
2021/10/02 14:30:18;;;;;;;9.57;1.83;;;;;;;;;;5075875;28;20528;-58
2021/10/02 14:32:44;;;;;;;7.80;1.65;;;;;;;;;;5074425;28;20087;-60
2021/10/02 14:35:10;;;;;;;3.97;1.52;;;;;;;;;;5055511;28;20032;-59
2021/10/02 14:37:36;;;;;;;5.70;1.50;;;;;;;;;;5075161;28;20047;-60
2021/10/02 14:40:03;;;;;;;4.78;1.77;;;;;;;;;;5073469;28;20166;-60
2021/10/02 14:42:29;;;;;;;3.67;1.58;;;;;;;;;;5070307;28;20056;-60
2021/10/02 14:44:55;;;;;;;6.15;1.90;;;;;;;;;;5074737;28;20047;-58
2021/10/02 14:47:21;;;;;;;4.57;1.52;;;;;;;;;;5067935;28;20460;-57
2021/10/02 14:49:47;;;;;;;6.90;1.67;;;;;;;;;;5051523;28;20113;-59
2021/10/02 14:52:14;;;;;;;5.93;1.88;;;;;;;;;;5068993;28;20040;-60
2021/10/02 14:54:41;;;;;;;4.63;1.48;;;;;;;;;;5068176;28;20060;-59
2021/10/02 14:57:07;;;;;;;5.63;1.55;;;;;;;;;;5069288;28;20037;-59
2021/10/02 14:59:33;;;;;;;9.23;1.60;;;;;;;;;;5069959;28;20044;-60
2021/10/02 15:02:02;;;;;;;8.73;1.63;;;;;;;;;;5074123;28;20040;-59
2021/10/02 15:04:28;;;;;;;4.28;1.50;;;;;;;;;;5076088;28;20124;-59
2021/10/02 15:06:55;;;;;;;4.00;1.50;;;;;;;;;;5069285;28;20133;-58
2021/10/02 15:09:21;;;;;;;12.48;1.55;;;;;;;;;;5071610;28;20135;-60
2021/10/02 15:11:47;;;;;;;4.68;1.35;;;;;;;;;;5069629;28;20051;-61
2021/10/02 15:14:13;;;;;;;6.85;1.67;;;;;;;;;;5070470;28;20063;-58
2021/10/02 15:16:39;;;;;;;4.60;1.27;;;;;;;;;;5050667;28;20961;-59
2021/10/02 15:19:05;;;;;;;4.22;1.13;;;;;;;;;;5071752;28;20043;-60
2021/10/02 15:21:37;;;;;;;4.60;1.10;;;;;;;;;;5052835;28;20059;-60
2021/10/02 15:24:05;;;;;;;6.45;1.35;;;;;;;;;;5070939;28;20065;-58
2021/10/02 15:26:31;;;;;;;3.35;1.00;;;;;;;;;;5067374;28;20044;-59
2021/10/02 15:29:00;;;;;;;3.58;0.90;;;;;;;;;;5069560;28;20043;-61
2021/10/02 15:31:27;;;;;;;4.65;0.88;;;;;;;;;;5068448;28;20032;-60
2021/10/02 15:33:54;;;;;;;2.80;0.98;;;;;;;;;;5068628;28;20038;-59
2021/10/02 15:36:23;;;;;;;3.35;1.10;;;;;;;;;;5067053;28;20120;-59
2021/10/02 15:38:49;;;;;;;2.33;0.73;;;;;;;;;;5069982;28;20256;-60